MiSS Bettye — WDC2608 — position and weather

sailwx.info

Track history (hours):
 
Tides and Currents Weather Stations Pressure Air Temp Water Temp Dewpoint Dewpoint Depression Visibility Wind Speed Wind Dir Waves Ship Positions

MiSS Bettye

Owner: Kirby Inland Marine, LP, Houston, TX. More information available from US FCC via Universal Licensing System and Coast Guard Vessel Documentation Center.

Last reported at 2018-Jun-25 19:30 UTC. Time now 2018-Jun-25 19:41 UTC.
Position N 29°60' W 093°55'.

Length 119 m; draft 3 m.

Type: . MMSI: 366995540.

Date/timePositionNaut miles runAvg speedWind from/ knotsBaromVisibWave heightAir tempDewpointWater temp
2018-Jun-25 19:30N 29°60' W 093°55'0 0.0
2018-Jun-25 19:00N 29°60' W 093°55'0 0.0
2018-Jun-25 18:30N 29°60' W 093°55'0 0.0
2018-Jun-25 18:00N 29°60' W 093°55'0 0.0
2018-Jun-25 17:30N 29°60' W 093°55'0 0.0
2018-Jun-25 17:01N 29°60' W 093°55'0 0.0
2018-Jun-25 16:30N 29°60' W 093°55'0 0.0
2018-Jun-25 16:00N 29°60' W 093°55'0 0.0
2018-Jun-25 15:30N 29°60' W 093°55'0 0.0
2018-Jun-25 15:01N 29°60' W 093°55'0 0.0
2018-Jun-25 14:30N 29°60' W 093°55'0 0.0
2018-Jun-25 14:00N 29°60' W 093°55'0 0.0
2018-Jun-25 13:30N 29°60' W 093°55'0 0.0
2018-Jun-25 13:00N 29°60' W 093°55'0 0.0
2018-Jun-25 12:30N 29°60' W 093°55'0 0.0
2018-Jun-25 12:00N 29°60' W 093°55'0 0.0
2018-Jun-25 11:30N 29°60' W 093°55'0 0.0
2018-Jun-25 11:00N 29°60' W 093°55'1 1.6
2018-Jun-25 10:31N 29°59' W 093°54'3 5.9
2018-Jun-25 10:00N 29°58' W 093°51'3 6.9
2018-Jun-25 09:30N 29°55' W 093°53'4 7.1
2018-Jun-25 09:00N 29°52' W 093°56'3 6.4
2018-Jun-25 08:30N 29°49' W 093°58'2 4.5
2018-Jun-25 08:00N 29°48' W 093°60'2 3.9
2018-Jun-25 07:30N 29°47' W 094°01'2 4.3
2018-Jun-25 07:00N 29°46' W 094°03'2 4.2
2018-Jun-25 06:30N 29°44' W 094°05'2 4.3
2018-Jun-25 06:00N 29°43' W 094°07'2 4.6
2018-Jun-25 05:30N 29°42' W 094°09'1 3.0
2018-Jun-25 05:00N 29°41' W 094°11'2 3.8
2018-Jun-25 04:31N 29°40' W 094°13'2 4.3
2018-Jun-25 04:00N 29°39' W 094°15'2 4.3
2018-Jun-25 03:30N 29°38' W 094°17'2 3.4
2018-Jun-25 02:59N 29°38' W 094°19'2 4.3
2018-Jun-25 02:30N 29°37' W 094°21'3 4.0
2018-Jun-25 01:50N 29°36' W 094°24'2 3.8
2018-Jun-25 01:16N 29°34' W 094°25'1 4.4
2018-Jun-25 00:57N 29°34' W 094°27'16 4.5
2018-Jun-24 21:22N 29°25' W 094°43'2 4.6
2018-Jun-24 20:55N 29°24' W 094°45'2 5.2
2018-Jun-24 20:30N 29°23' W 094°47'9 4.7
2018-Jun-24 18:42N 29°30' W 094°52'1 6.1
2018-Jun-24 18:30N 29°31' W 094°53'3 6.0
2018-Jun-24 18:00N 29°33' W 094°55'3 5.9
2018-Jun-24 17:30N 29°36' W 094°57'3 5.9
2018-Jun-24 17:00N 29°38' W 094°58'3 6.1
2018-Jun-24 16:30N 29°41' W 094°59'8 0.3
2018-Jun-23 11:17N 29°46' W 095°07'0 0.0
2018-Jun-23 08:53N 29°46' W 095°07'0 0.0
2018-Jun-23 07:12N 29°46' W 095°07'0 0.0
2018-Jun-23 06:59N 29°46' W 095°07'0 0.0
2018-Jun-23 06:26N 29°46' W 095°07'0 0.0
2018-Jun-23 05:57N 29°46' W 095°07'0 0.0
2018-Jun-23 05:30N 29°46' W 095°07'0 0.0
2018-Jun-23 04:59N 29°46' W 095°07'0 0.0
2018-Jun-23 04:28N 29°46' W 095°07'0 0.0
2018-Jun-23 03:58N 29°46' W 095°07'0 0.8
2018-Jun-23 03:30N 29°46' W 095°07'1 0.1
2018-Jun-22 08:04N 29°46' W 095°06'0 0.0
2018-Jun-22 08:00N 29°46' W 095°06'0 0.0
2018-Jun-22 07:26N 29°46' W 095°06'0 0.0
2018-Jun-22 06:42N 29°46' W 095°06'0 0.0
2018-Jun-22 06:24N 29°46' W 095°06'0 0.2
2018-Jun-22 06:00N 29°45' W 095°06'0 0.0
2018-Jun-22 05:30N 29°45' W 095°06'0 0.0
2018-Jun-22 04:59N 29°45' W 095°06'0 0.0
2018-Jun-22 04:30N 29°45' W 095°06'0 0.0
2018-Jun-22 03:53N 29°45' W 095°06'0 0.0
2018-Jun-22 03:30N 29°45' W 095°06'1 0.3
2018-Jun-22 01:18N 29°46' W 095°05'2 4.5
2018-Jun-22 00:56N 29°45' W 095°04'  
Track history (hours):
 
Tides and Currents Weather Stations Pressure Air Temp Water Temp Dewpoint Dewpoint Depression Visibility Wind Speed Wind Dir Waves Ship Positions

MiSS Bettye

Owner: Kirby Inland Marine, LP, Houston, TX. More information available from US FCC via Universal Licensing System and Coast Guard Vessel Documentation Center.

Last reported at 2018-Jun-25 19:30 UTC. Time now 2018-Jun-25 19:41 UTC.
Position N 29°60' W 093°55'.

Length 119 m; draft 3 m.

Type: . MMSI: 366995540.

Date/timePositionNaut miles runAvg speedWind from/ knotsBaromVisibWave heightAir tempDewpointWater temp
2018-Jun-25 19:30N 29°60' W 093°55'0 0.0
2018-Jun-25 19:00N 29°60' W 093°55'0 0.0
2018-Jun-25 18:30N 29°60' W 093°55'0 0.0
2018-Jun-25 18:00N 29°60' W 093°55'0 0.0
2018-Jun-25 17:30N 29°60' W 093°55'0 0.0
2018-Jun-25 17:01N 29°60' W 093°55'0 0.0
2018-Jun-25 16:30N 29°60' W 093°55'0 0.0
2018-Jun-25 16:00N 29°60' W 093°55'0 0.0
2018-Jun-25 15:30N 29°60' W 093°55'0 0.0
2018-Jun-25 15:01N 29°60' W 093°55'0 0.0
2018-Jun-25 14:30N 29°60' W 093°55'0 0.0
2018-Jun-25 14:00N 29°60' W 093°55'0 0.0
2018-Jun-25 13:30N 29°60' W 093°55'0 0.0
2018-Jun-25 13:00N 29°60' W 093°55'0 0.0
2018-Jun-25 12:30N 29°60' W 093°55'0 0.0
2018-Jun-25 12:00N 29°60' W 093°55'0 0.0
2018-Jun-25 11:30N 29°60' W 093°55'0 0.0
2018-Jun-25 11:00N 29°60' W 093°55'1 1.6
2018-Jun-25 10:31N 29°59' W 093°54'3 5.9
2018-Jun-25 10:00N 29°58' W 093°51'3 6.9
2018-Jun-25 09:30N 29°55' W 093°53'4 7.1
2018-Jun-25 09:00N 29°52' W 093°56'3 6.4
2018-Jun-25 08:30N 29°49' W 093°58'2 4.5
2018-Jun-25 08:00N 29°48' W 093°60'2 3.9
2018-Jun-25 07:30N 29°47' W 094°01'2 4.3
2018-Jun-25 07:00N 29°46' W 094°03'2 4.2
2018-Jun-25 06:30N 29°44' W 094°05'2 4.3
2018-Jun-25 06:00N 29°43' W 094°07'2 4.6
2018-Jun-25 05:30N 29°42' W 094°09'1 3.0
2018-Jun-25 05:00N 29°41' W 094°11'2 3.8
2018-Jun-25 04:31N 29°40' W 094°13'2 4.3
2018-Jun-25 04:00N 29°39' W 094°15'2 4.3
2018-Jun-25 03:30N 29°38' W 094°17'2 3.4
2018-Jun-25 02:59N 29°38' W 094°19'2 4.3
2018-Jun-25 02:30N 29°37' W 094°21'3 4.0
2018-Jun-25 01:50N 29°36' W 094°24'2 3.8
2018-Jun-25 01:16N 29°34' W 094°25'1 4.4
2018-Jun-25 00:57N 29°34' W 094°27'16 4.5
2018-Jun-24 21:22N 29°25' W 094°43'2 4.6
2018-Jun-24 20:55N 29°24' W 094°45'2 5.2
2018-Jun-24 20:30N 29°23' W 094°47'9 4.7
2018-Jun-24 18:42N 29°30' W 094°52'1 6.1
2018-Jun-24 18:30N 29°31' W 094°53'3 6.0
2018-Jun-24 18:00N 29°33' W 094°55'3 5.9
2018-Jun-24 17:30N 29°36' W 094°57'3 5.9
2018-Jun-24 17:00N 29°38' W 094°58'3 6.1
2018-Jun-24 16:30N 29°41' W 094°59'8 0.3
2018-Jun-23 11:17N 29°46' W 095°07'0 0.0
2018-Jun-23 08:53N 29°46' W 095°07'0 0.0
2018-Jun-23 07:12N 29°46' W 095°07'0 0.0
2018-Jun-23 06:59N 29°46' W 095°07'0 0.0
2018-Jun-23 06:26N 29°46' W 095°07'0 0.0
2018-Jun-23 05:57N 29°46' W 095°07'0 0.0
2018-Jun-23 05:30N 29°46' W 095°07'0 0.0
2018-Jun-23 04:59N 29°46' W 095°07'0 0.0
2018-Jun-23 04:28N 29°46' W 095°07'0 0.0
2018-Jun-23 03:58N 29°46' W 095°07'0 0.8
2018-Jun-23 03:30N 29°46' W 095°07'1 0.1
2018-Jun-22 08:04N 29°46' W 095°06'0 0.0
2018-Jun-22 08:00N 29°46' W 095°06'0 0.0
2018-Jun-22 07:26N 29°46' W 095°06'0 0.0
2018-Jun-22 06:42N 29°46' W 095°06'0 0.0
2018-Jun-22 06:24N 29°46' W 095°06'0 0.2
2018-Jun-22 06:00N 29°45' W 095°06'0 0.0
2018-Jun-22 05:30N 29°45' W 095°06'0 0.0
2018-Jun-22 04:59N 29°45' W 095°06'0 0.0
2018-Jun-22 04:30N 29°45' W 095°06'0 0.0
2018-Jun-22 03:53N 29°45' W 095°06'0 0.0
2018-Jun-22 03:30N 29°45' W 095°06'1 0.3
2018-Jun-22 01:18N 29°46' W 095°05'2 4.5
2018-Jun-22 00:56N 29°45' W 095°04'  

Dump ship's entire track history